createdAt,value
2023-02-06T00:01:26.688Z,40.95
2023-02-06T00:03:53.849Z,41.97
2023-02-06T00:06:20.952Z,37.47
2023-02-06T00:08:48.104Z,36.65
2023-02-06T00:11:16.777Z,37.75
2023-02-06T00:13:45.016Z,35.67
2023-02-06T00:16:29.717Z,35.47
2023-02-06T00:18:57.463Z,36.15
2023-02-06T00:21:26.063Z,32.88
2023-02-06T00:23:58.286Z,35.65
2023-02-06T00:26:25.766Z,33.55
2023-02-06T00:28:53.865Z,37.50
2023-02-06T00:31:21.272Z,35.85
2023-02-06T00:33:48.467Z,36.15
2023-02-06T00:36:15.708Z,36.70
2023-02-06T00:38:42.855Z,38.85
2023-02-06T00:41:11.242Z,40.22
2023-02-06T00:43:38.395Z,42.55
2023-02-06T00:46:05.784Z,37.97
2023-02-06T00:48:33.023Z,40.95
2023-02-06T00:51:00.220Z,38.35
2023-02-06T00:53:27.471Z,41.15
2023-02-06T00:55:54.589Z,40.38
2023-02-06T00:58:22.185Z,41.90
2023-02-06T01:00:49.413Z,48.83
2023-02-06T01:03:18.721Z,43.42
2023-02-06T01:05:45.838Z,49.38
2023-02-06T01:08:12.960Z,52.05
2023-02-06T01:10:43.872Z,54.10
2023-02-06T01:13:11.157Z,51.30
2023-02-06T01:15:38.396Z,53.10
2023-02-06T01:18:05.657Z,54.10
2023-02-06T01:20:32.862Z,54.88
2023-02-06T01:23:00.011Z,57.08
2023-02-06T01:25:27.169Z,55.63
2023-02-06T01:27:54.294Z,57.05
2023-02-06T01:30:21.530Z,52.15
2023-02-06T01:32:49.746Z,54.33
2023-02-06T01:35:16.940Z,55.33
2023-02-06T01:37:44.144Z,54.65
2023-02-06T01:40:14.764Z,55.90
2023-02-06T01:42:42.097Z,52.92
2023-02-06T01:45:35.230Z,51.58
2023-02-06T01:48:15.049Z,52.40
2023-02-06T01:50:44.009Z,54.90
2023-02-06T01:53:11.149Z,55.95
2023-02-06T01:55:38.527Z,52.85
2023-02-06T01:58:05.980Z,52.20
2023-02-06T02:00:33.138Z,51.13
2023-02-06T02:03:00.276Z,48.10
2023-02-06T02:05:27.431Z,46.72
2023-02-06T02:08:02.683Z,46.65
2023-02-06T02:10:30.537Z,44.72
2023-02-06T02:12:57.763Z,39.88
2023-02-06T02:15:39.073Z,44.30
2023-02-06T02:18:33.804Z,42.75
2023-02-06T02:21:43.827Z,40.55
2023-02-06T02:24:20.875Z,48.97
2023-02-06T02:26:56.679Z,44.75
2023-02-06T02:29:44.529Z,42.53
2023-02-06T02:32:29.774Z,41.65
2023-02-06T02:35:10.927Z,41.67
2023-02-06T02:38:04.035Z,40.90
2023-02-06T02:40:41.416Z,41.30
2023-02-06T02:43:35.286Z,38.15
2023-02-06T02:46:43.275Z,38.63
2023-02-06T02:49:23.545Z,37.30
2023-02-06T02:51:50.835Z,38.88
2023-02-06T02:54:18.403Z,37.75
2023-02-06T02:56:45.565Z,43.70
2023-02-06T02:59:23.935Z,48.65
2023-02-06T03:02:10.543Z,47.15
2023-02-06T03:04:40.643Z,56.22
2023-02-06T03:07:35.500Z,55.17
2023-02-06T03:10:18.057Z,55.10
2023-02-06T03:13:23.261Z,56.15
2023-02-06T03:16:31.388Z,56.15
2023-02-06T03:19:07.514Z,57.25
2023-02-06T03:21:35.771Z,57.22
2023-02-06T03:24:07.178Z,54.20
2023-02-06T03:26:34.346Z,51.45
2023-02-06T03:29:02.941Z,50.53
2023-02-06T03:31:40.872Z,49.42
2023-02-06T03:34:47.654Z,49.03
2023-02-06T03:37:14.800Z,50.20
2023-02-06T03:39:44.392Z,48.55
2023-02-06T03:42:11.883Z,51.25
2023-02-06T03:44:43.874Z,53.33
2023-02-06T03:47:11.142Z,52.55
2023-02-06T03:49:39.462Z,49.88
2023-02-06T03:52:09.568Z,49.58
2023-02-06T03:54:40.212Z,47.97
2023-02-06T03:57:08.635Z,47.70
2023-02-06T03:59:35.742Z,49.83
2023-02-06T04:02:04.036Z,52.25
2023-02-06T04:04:37.313Z,57.72
2023-02-06T04:07:18.122Z,55.05
2023-02-06T04:09:45.679Z,56.50
2023-02-06T04:12:12.836Z,55.65
2023-02-06T04:14:39.945Z,59.22
2023-02-06T04:17:07.241Z,58.30
2023-02-06T04:19:34.486Z,58.67
2023-02-06T04:22:02.018Z,58.13
2023-02-06T04:24:30.970Z,61.20
2023-02-06T04:26:58.666Z,60.35
2023-02-06T04:29:26.010Z,59.35
2023-02-06T04:31:53.182Z,54.55
2023-02-06T04:34:20.311Z,55.58
2023-02-06T04:36:47.458Z,57.47
2023-02-06T04:39:14.691Z,59.75
2023-02-06T04:41:42.070Z,55.33
2023-02-06T04:44:09.315Z,58.78
2023-02-06T04:46:38.550Z,57.00
2023-02-06T04:49:05.704Z,56.72
2023-02-06T04:51:32.837Z,53.50
2023-02-06T04:54:00.065Z,57.00
2023-02-06T04:56:34.775Z,57.67
2023-02-06T04:59:01.994Z,55.83
2023-02-06T05:01:29.284Z,53.95
2023-02-06T05:03:56.409Z,56.65
2023-02-06T05:06:23.711Z,60.55
2023-02-06T05:08:50.817Z,55.72
2023-02-06T05:11:17.964Z,57.50
2023-02-06T05:13:45.484Z,56.17
2023-02-06T05:16:14.620Z,55.47
2023-02-06T05:18:42.311Z,54.88
2023-02-06T05:21:09.436Z,56.10
2023-02-06T05:23:36.576Z,51.17
2023-02-06T05:26:03.873Z,50.55
2023-02-06T05:28:33.408Z,51.08
2023-02-06T05:31:01.408Z,49.10
2023-02-06T05:33:28.676Z,50.05
2023-02-06T05:36:02.941Z,52.40
2023-02-06T05:38:30.208Z,55.40
2023-02-06T05:40:57.329Z,57.38
2023-02-06T05:43:24.534Z,55.58
2023-02-06T05:45:51.872Z,51.10
2023-02-06T05:48:19.074Z,53.08
2023-02-06T05:50:49.657Z,53.85
2023-02-06T05:53:17.509Z,51.35
2023-02-06T05:55:44.645Z,48.97
2023-02-06T05:58:11.929Z,50.22
2023-02-06T06:00:39.125Z,52.45
2023-02-06T06:03:06.236Z,50.25
2023-02-06T06:05:33.558Z,46.97
2023-02-06T06:08:00.836Z,52.78
2023-02-06T06:10:28.014Z,54.53
2023-02-06T06:12:55.195Z,54.80
2023-02-06T06:15:22.310Z,53.00
2023-02-06T06:17:49.431Z,53.28
2023-02-06T06:20:16.868Z,54.08
2023-02-06T06:22:44.028Z,59.58
2023-02-06T06:25:12.180Z,58.33
2023-02-06T06:27:39.736Z,62.20
2023-02-06T06:30:07.752Z,62.55
2023-02-06T06:32:34.934Z,64.78
2023-02-06T06:35:02.053Z,63.67
2023-02-06T06:37:29.192Z,63.85
2023-02-06T06:39:56.307Z,63.63
2023-02-06T06:42:23.526Z,60.70
2023-02-06T06:44:50.636Z,64.57
2023-02-06T06:47:17.884Z,61.63
2023-02-06T06:49:45.054Z,62.60
2023-02-06T06:52:24.043Z,61.53
2023-02-06T06:54:53.018Z,66.88
2023-02-06T06:57:21.575Z,64.72
2023-02-06T06:59:49.005Z,67.63
2023-02-06T07:02:16.409Z,61.03
2023-02-06T07:04:43.632Z,62.90
2023-02-06T07:07:15.824Z,64.72
2023-02-06T07:09:42.981Z,62.08
2023-02-06T07:12:12.805Z,62.40
2023-02-06T07:14:40.519Z,65.22
2023-02-06T07:17:07.646Z,64.55
2023-02-06T07:19:34.819Z,64.18
2023-02-06T07:22:01.992Z,57.42
2023-02-06T07:24:29.137Z,59.22
2023-02-06T07:26:57.782Z,64.10
2023-02-06T07:29:29.949Z,59.53
2023-02-06T07:31:57.555Z,64.78
2023-02-06T07:34:24.995Z,56.97
2023-02-06T07:36:52.235Z,60.88
2023-02-06T07:39:19.440Z,64.22
2023-02-06T07:41:49.090Z,65.15
2023-02-06T07:44:19.425Z,70.05
2023-02-06T07:46:50.478Z,69.93
2023-02-06T07:49:17.748Z,63.67
2023-02-06T07:51:45.505Z,71.40
2023-02-06T07:54:15.540Z,76.82
2023-02-06T07:56:42.763Z,77.45
2023-02-06T07:59:10.111Z,79.88
2023-02-06T08:01:37.296Z,78.65
2023-02-06T08:04:04.588Z,77.85
2023-02-06T08:06:31.764Z,80.28
2023-02-06T08:08:58.898Z,78.18
2023-02-06T08:11:28.959Z,74.68
2023-02-06T08:13:56.301Z,73.78
2023-02-06T08:16:23.970Z,73.57
2023-02-06T08:18:51.308Z,69.80
2023-02-06T08:21:21.581Z,68.80
2023-02-06T08:23:54.858Z,78.50
2023-02-06T08:26:22.186Z,65.63
2023-02-06T08:28:55.691Z,67.05
2023-02-06T08:31:33.823Z,69.97
2023-02-06T08:34:01.053Z,68.07
2023-02-06T08:36:31.091Z,66.70
2023-02-06T08:38:58.748Z,71.72
2023-02-06T08:41:40.063Z,71.18
2023-02-06T08:44:16.139Z,70.30
2023-02-06T08:46:44.259Z,69.70
2023-02-06T08:49:19.613Z,70.53
2023-02-06T08:51:50.361Z,55.72
2023-02-06T08:54:20.716Z,62.83
2023-02-06T08:56:50.845Z,63.20
2023-02-06T08:59:20.532Z,67.15
2023-02-06T09:01:49.290Z,67.78
2023-02-06T09:04:16.573Z,65.10
2023-02-06T09:06:49.043Z,63.95
2023-02-06T09:09:22.327Z,57.47
2023-02-06T09:11:49.513Z,58.67
2023-02-06T09:14:19.264Z,44.85
2023-02-06T09:16:49.112Z,38.30
2023-02-06T09:19:16.241Z,33.67
2023-02-06T09:21:43.427Z,36.75
2023-02-06T09:24:13.634Z,30.50
2023-02-06T09:26:58.509Z,29.90
2023-02-06T09:29:34.062Z,30.17
2023-02-06T09:32:01.413Z,30.33
2023-02-06T09:34:31.416Z,29.70
2023-02-06T09:37:01.430Z,33.45
2023-02-06T09:39:28.871Z,34.05
2023-02-06T09:42:03.297Z,32.70
2023-02-06T09:44:32.964Z,32.15
2023-02-06T09:47:18.067Z,28.75
2023-02-06T09:50:02.753Z,26.13
2023-02-06T09:52:56.730Z,21.48
2023-02-06T09:55:48.399Z,18.33
2023-02-06T09:58:40.166Z,22.85
2023-02-06T10:01:35.134Z,20.38
2023-02-06T10:04:48.626Z,17.95
2023-02-06T10:08:01.322Z,14.82
2023-02-06T10:10:47.636Z,13.57
2023-02-06T10:13:49.648Z,16.58
2023-02-06T10:16:39.836Z,15.88
2023-02-06T10:19:33.517Z,21.08
2023-02-06T10:22:11.581Z,16.65
2023-02-06T10:24:50.487Z,15.38
2023-02-06T10:27:20.295Z,14.85
2023-02-06T10:29:48.505Z,13.80
2023-02-06T10:32:54.254Z,18.48
2023-02-06T10:35:54.058Z,11.80
2023-02-06T10:38:54.937Z,14.15
2023-02-06T10:41:46.959Z,11.80
2023-02-06T10:44:31.436Z,12.43
2023-02-06T10:47:01.104Z,9.95
2023-02-06T10:49:45.405Z,10.18
2023-02-06T10:52:38.413Z,9.15
2023-02-06T10:55:26.647Z,9.88
2023-02-06T10:58:20.638Z,9.52
2023-02-06T11:00:57.736Z,9.00
2023-02-06T11:03:28.638Z,12.13
2023-02-06T11:05:55.841Z,13.68
2023-02-06T11:08:26.683Z,10.90
2023-02-06T11:10:56.640Z,10.57
2023-02-06T11:13:35.132Z,7.88
2023-02-06T11:16:13.003Z,10.95
2023-02-06T11:18:43.398Z,7.50
2023-02-06T11:21:12.958Z,9.18
2023-02-06T11:23:40.185Z,10.07
2023-02-06T11:26:18.433Z,10.18
2023-02-06T11:28:57.110Z,9.63
2023-02-06T11:31:57.049Z,8.02
2023-02-06T11:34:32.928Z,12.93
2023-02-06T11:37:05.903Z,11.65
2023-02-06T11:39:50.352Z,13.32
2023-02-06T11:42:28.397Z,14.68
2023-02-06T11:44:55.806Z,13.43
2023-02-06T11:47:37.792Z,12.30
2023-02-06T11:50:36.258Z,9.55
2023-02-06T11:53:10.131Z,11.82
2023-02-06T11:55:38.704Z,13.27
2023-02-06T11:58:12.017Z,12.50
2023-02-06T12:00:59.227Z,13.45
2023-02-06T12:03:33.878Z,11.18
2023-02-06T12:06:15.342Z,14.88
2023-02-06T12:09:11.750Z,11.75
2023-02-06T12:12:11.261Z,11.32
2023-02-06T12:14:58.765Z,12.23
2023-02-06T12:18:03.628Z,10.50
2023-02-06T12:20:59.380Z,10.55
2023-02-06T12:23:41.016Z,11.57
2023-02-06T12:26:14.893Z,13.88
2023-02-06T12:29:08.115Z,14.73
2023-02-06T12:31:58.901Z,13.55
2023-02-06T12:34:49.491Z,12.85
2023-02-06T12:37:39.816Z,11.43
2023-02-06T12:40:45.814Z,12.90
2023-02-06T12:43:15.177Z,13.02
2023-02-06T12:45:58.106Z,13.88
2023-02-06T12:48:57.631Z,12.23
2023-02-06T12:51:36.187Z,10.38
2023-02-06T12:54:55.934Z,14.02
2023-02-06T12:57:25.861Z,14.77
2023-02-06T13:00:05.406Z,13.70
2023-02-06T13:03:10.614Z,15.18
2023-02-06T13:06:11.410Z,9.10
2023-02-06T13:08:48.933Z,13.13
2023-02-06T13:11:39.307Z,13.15
2023-02-06T13:14:18.310Z,12.82
2023-02-06T13:16:56.796Z,12.68
2023-02-06T13:19:28.267Z,15.63
2023-02-06T13:22:10.641Z,13.38
2023-02-06T13:24:39.089Z,14.43
2023-02-06T13:27:10.054Z,14.80
2023-02-06T13:29:54.016Z,13.02
2023-02-06T13:32:30.436Z,12.48
2023-02-06T13:35:13.070Z,12.95
2023-02-06T13:37:47.782Z,12.55
2023-02-06T13:40:18.117Z,10.65
2023-02-06T13:43:01.054Z,12.10
2023-02-06T13:46:05.599Z,11.82
2023-02-06T13:48:54.618Z,12.60
2023-02-06T13:51:48.505Z,11.00
2023-02-06T13:54:52.901Z,10.57
2023-02-06T13:57:55.980Z,11.63
2023-02-06T14:00:31.397Z,10.65
2023-02-06T14:03:07.386Z,9.68
2023-02-06T14:06:17.348Z,10.23
2023-02-06T14:09:39.941Z,10.48
2023-02-06T14:12:45.691Z,7.88
2023-02-06T14:15:30.364Z,11.63
2023-02-06T14:18:07.249Z,11.40
2023-02-06T14:20:55.151Z,12.77
2023-02-06T14:23:50.828Z,11.02
2023-02-06T14:26:37.312Z,13.23
2023-02-06T14:29:31.585Z,13.38
2023-02-06T14:32:23.620Z,10.57
2023-02-06T14:35:25.148Z,11.52
2023-02-06T14:38:37.144Z,11.15
2023-02-06T14:41:04.501Z,12.93
2023-02-06T14:43:36.024Z,13.00
2023-02-06T14:46:08.450Z,10.70
2023-02-06T14:48:53.791Z,10.63
2023-02-06T14:51:35.382Z,13.02
2023-02-06T14:54:14.679Z,13.50
2023-02-06T14:56:41.927Z,11.00
2023-02-06T14:59:18.832Z,13.80
2023-02-06T15:01:52.157Z,14.30
2023-02-06T15:04:28.568Z,16.73
2023-02-06T15:07:02.131Z,15.50
2023-02-06T15:09:35.628Z,16.33
2023-02-06T15:12:17.509Z,17.42
2023-02-06T15:15:02.577Z,16.10
2023-02-06T15:17:30.270Z,15.00
2023-02-06T15:19:57.765Z,15.98
2023-02-06T15:22:30.099Z,13.95
2023-02-06T15:25:03.378Z,16.85
2023-02-06T15:27:35.931Z,18.95
2023-02-06T15:30:22.553Z,14.98
2023-02-06T15:32:51.872Z,14.95
2023-02-06T15:35:36.785Z,19.30
2023-02-06T15:38:10.999Z,15.00
2023-02-06T15:43:06.760Z,16.83
2023-02-06T15:45:37.314Z,16.52
2023-02-06T15:48:46.696Z,17.42
2023-02-06T15:51:25.176Z,17.70
2023-02-06T15:54:15.336Z,17.40
2023-02-06T15:56:42.738Z,16.58
2023-02-06T15:59:19.352Z,14.45
2023-02-06T16:01:46.668Z,15.10
2023-02-06T16:04:37.275Z,15.57
2023-02-06T16:07:12.621Z,15.98
2023-02-06T16:10:10.350Z,16.02
2023-02-06T16:12:44.535Z,17.58
2023-02-06T16:15:33.908Z,16.73
2023-02-06T16:18:26.572Z,19.15
2023-02-06T16:21:31.725Z,16.23
2023-02-06T16:24:03.220Z,17.45
2023-02-06T16:27:05.323Z,19.10
2023-02-06T16:29:32.764Z,19.52
2023-02-06T16:32:02.370Z,21.05
2023-02-06T16:34:45.149Z,22.30
2023-02-06T16:37:17.639Z,21.42
2023-02-06T16:39:45.039Z,17.73
2023-02-06T16:42:20.857Z,18.70
2023-02-06T16:44:51.266Z,19.50
2023-02-06T16:47:20.078Z,19.27
2023-02-06T16:49:51.099Z,22.08
2023-02-06T16:52:31.393Z,21.83
2023-02-06T16:54:59.124Z,25.50
2023-02-06T16:57:38.179Z,27.23
2023-02-06T17:00:25.572Z,26.02
2023-02-06T17:02:53.374Z,19.60
2023-02-06T17:05:25.424Z,23.70
2023-02-06T17:07:52.880Z,26.48
2023-02-06T17:10:23.631Z,23.90
2023-02-06T17:12:50.973Z,23.48
2023-02-06T17:15:18.658Z,25.52
2023-02-06T17:17:46.069Z,26.17
2023-02-06T17:20:35.852Z,28.25
2023-02-06T17:23:03.205Z,33.95
2023-02-06T17:25:30.661Z,42.47
2023-02-06T17:27:57.842Z,47.25
2023-02-06T17:30:26.210Z,37.28
2023-02-06T17:32:53.554Z,37.03
2023-02-06T17:35:20.764Z,30.35
2023-02-06T17:37:49.207Z,33.22
2023-02-06T17:40:26.672Z,37.53
2023-02-06T17:42:54.090Z,36.58
2023-02-06T17:45:21.337Z,30.92
2023-02-06T17:47:48.508Z,32.13
2023-02-06T17:50:18.740Z,30.75
2023-02-06T17:52:46.067Z,32.08
2023-02-06T17:55:13.255Z,38.50
2023-02-06T17:57:40.450Z,43.67
2023-02-06T18:00:12.859Z,37.55
2023-02-06T18:02:40.046Z,39.05
2023-02-06T18:05:07.725Z,36.25
2023-02-06T18:07:34.963Z,40.95
2023-02-06T18:10:02.167Z,39.58
2023-02-06T18:12:29.327Z,42.13
2023-02-06T18:14:56.602Z,39.55
2023-02-06T18:17:23.738Z,39.95
2023-02-06T18:19:50.986Z,41.53
2023-02-06T18:22:20.300Z,46.70
2023-02-06T18:24:47.916Z,47.40
2023-02-06T18:27:15.315Z,45.80
2023-02-06T18:29:49.830Z,51.75
2023-02-06T18:32:19.875Z,48.47
2023-02-06T18:34:49.328Z,54.10
2023-02-06T18:37:16.559Z,49.00
2023-02-06T18:39:46.709Z,46.70
2023-02-06T18:42:32.699Z,39.15
2023-02-06T18:44:59.819Z,47.65
2023-02-06T18:47:26.974Z,43.88
2023-02-06T18:49:54.186Z,44.95
2023-02-06T18:52:21.323Z,40.80
2023-02-06T18:54:48.848Z,45.97
2023-02-06T18:57:16.043Z,52.35
2023-02-06T18:59:43.194Z,62.25
2023-02-06T19:02:11.908Z,62.22
2023-02-06T19:04:40.624Z,65.05
2023-02-06T19:07:08.971Z,65.10
2023-02-06T19:09:36.195Z,64.07
2023-02-06T19:12:03.509Z,74.45
2023-02-06T19:14:31.144Z,68.05
2023-02-06T19:16:58.541Z,83.00
2023-02-06T19:19:25.715Z,75.57
2023-02-06T19:21:52.859Z,81.38
2023-02-06T19:24:20.165Z,96.78
2023-02-06T19:26:47.482Z,88.25
2023-02-06T19:29:19.371Z,61.35
2023-02-06T19:31:51.246Z,70.15
2023-02-06T19:34:18.410Z,73.90
2023-02-06T19:36:45.570Z,60.38
2023-02-06T19:39:13.245Z,76.22
2023-02-06T19:41:40.430Z,71.47
2023-02-06T19:44:10.692Z,68.85
2023-02-06T19:46:38.051Z,78.93
2023-02-06T19:49:08.569Z,73.43
2023-02-06T19:51:39.701Z,77.18
2023-02-06T19:54:07.095Z,62.08
2023-02-06T19:56:41.340Z,58.38
2023-02-06T20:02:05.347Z,33.60
2023-02-06T20:04:34.675Z,47.35
2023-02-06T20:07:01.978Z,41.13
2023-02-06T20:09:29.421Z,47.75
2023-02-06T20:11:59.642Z,66.13
2023-02-06T20:14:27.004Z,47.95
2023-02-06T20:16:55.476Z,55.55
2023-02-06T20:19:31.054Z,47.67
2023-02-06T20:22:02.436Z,54.10
2023-02-06T20:24:31.379Z,62.42
2023-02-06T20:27:07.252Z,34.10
2023-02-06T20:29:38.937Z,50.65
2023-02-06T20:32:06.486Z,23.48
2023-02-06T20:34:33.868Z,57.35
2023-02-06T20:37:01.048Z,56.92
2023-02-06T20:39:28.785Z,59.22
2023-02-06T20:41:56.021Z,34.03
2023-02-06T20:44:23.280Z,69.97
2023-02-06T20:46:50.434Z,48.92
2023-02-06T20:49:26.173Z,62.00
2023-02-06T20:51:53.672Z,41.60
2023-02-06T20:54:21.124Z,43.88
2023-02-06T20:56:48.461Z,19.80
2023-02-06T20:59:17.168Z,42.80
2023-02-06T21:01:44.469Z,41.95
2023-02-06T21:04:12.947Z,33.97
2023-02-06T21:06:40.199Z,52.45
2023-02-06T21:09:07.887Z,27.52
2023-02-06T21:11:41.810Z,33.78
2023-02-06T21:14:09.117Z,40.17
2023-02-06T21:16:38.129Z,53.20
2023-02-06T21:19:07.141Z,31.17
2023-02-06T21:21:34.572Z,54.15
2023-02-06T21:24:04.401Z,40.25
2023-02-06T21:26:31.742Z,33.60
2023-02-06T21:28:59.707Z,38.15
2023-02-06T21:31:34.170Z,36.92
2023-02-06T21:34:17.545Z,39.47
2023-02-06T21:36:45.782Z,30.85
2023-02-06T21:39:17.040Z,30.63
2023-02-06T21:41:44.761Z,28.45
2023-02-06T21:44:11.925Z,36.90
2023-02-06T21:46:39.155Z,47.75
2023-02-06T21:49:06.705Z,33.75
2023-02-06T21:51:33.835Z,40.35
2023-02-06T21:54:01.012Z,39.20
2023-02-06T21:56:28.447Z,32.40
2023-02-06T21:58:55.966Z,38.80
2023-02-06T22:01:26.522Z,39.60
2023-02-06T22:03:54.061Z,40.58
2023-02-06T22:06:21.307Z,40.42
2023-02-06T22:08:51.975Z,28.95
2023-02-06T22:11:27.526Z,60.00
2023-02-06T22:14:02.404Z,46.53
2023-02-06T22:16:29.676Z,36.50
2023-02-06T22:18:56.969Z,34.60
2023-02-06T22:21:26.343Z,36.17
2023-02-06T22:23:55.442Z,33.35
2023-02-06T22:26:22.593Z,37.30
2023-02-06T22:28:49.792Z,50.00
2023-02-06T22:31:32.457Z,40.42
2023-02-06T22:34:00.145Z,41.95
2023-02-06T22:36:30.307Z,44.72
2023-02-06T22:39:03.936Z,44.75
2023-02-06T22:41:31.192Z,35.72
2023-02-06T22:43:58.384Z,43.97
2023-02-06T22:46:36.583Z,50.53
2023-02-06T22:49:05.831Z,44.10
2023-02-06T22:51:33.099Z,53.72
2023-02-06T22:54:00.656Z,42.67
2023-02-06T22:56:36.198Z,48.78
2023-02-06T22:59:17.383Z,44.75
2023-02-06T23:01:50.358Z,40.92
2023-02-06T23:04:22.857Z,45.60
2023-02-06T23:06:50.215Z,34.63
2023-02-06T23:09:24.902Z,48.90
2023-02-06T23:11:52.564Z,47.78
2023-02-06T23:14:20.135Z,44.42
2023-02-06T23:16:47.321Z,66.20
2023-02-06T23:19:14.641Z,60.88
2023-02-06T23:21:42.565Z,54.92
2023-02-06T23:24:10.026Z,43.47
2023-02-06T23:26:37.587Z,46.75
2023-02-06T23:29:07.984Z,48.92
2023-02-06T23:31:37.668Z,49.08
2023-02-06T23:34:04.775Z,39.13
2023-02-06T23:36:31.988Z,42.58
2023-02-06T23:39:02.117Z,51.70
2023-02-06T23:41:29.436Z,41.67
2023-02-06T23:44:01.832Z,46.60
2023-02-06T23:46:30.748Z,44.65
2023-02-06T23:48:58.310Z,39.97
2023-02-06T23:51:25.760Z,38.97
2023-02-06T23:53:52.963Z,37.55
2023-02-06T23:56:23.606Z,29.30
2023-02-06T23:58:51.094Z,34.70
